createdAt,value
2018-06-04T00:04:20.003Z,9.35
2018-06-04T00:10:15.022Z,10.53
2018-06-04T00:16:10.079Z,8.25
2018-06-04T00:22:05.090Z,7.73
2018-06-04T00:28:00.047Z,11.47
2018-06-04T00:33:55.115Z,8.45
2018-06-04T00:39:50.081Z,9.62
2018-06-04T00:45:45.065Z,6.64
2018-06-04T00:51:40.059Z,8.73
2018-06-04T00:57:35.087Z,8.28
2018-06-04T01:03:30.121Z,8.37
2018-06-04T01:09:25.082Z,7.52
2018-06-04T01:15:20.064Z,8.6
2018-06-04T01:21:15.073Z,8.23
2018-06-04T01:27:10.106Z,7.84
2018-06-04T01:33:05.100Z,9.2
2018-06-04T01:39:00.100Z,10.49
2018-06-04T01:44:55.079Z,8.98
2018-06-04T01:50:50.102Z,10.13
2018-06-04T01:56:45.085Z,8.02
2018-06-04T02:02:40.137Z,10.2
2018-06-04T02:08:35.169Z,8.77
2018-06-04T02:14:30.206Z,13.09
2018-06-04T02:20:25.139Z,10.64
2018-06-04T02:26:20.111Z,7.78
2018-06-04T02:32:15.153Z,10.61
2018-06-04T02:38:10.230Z,13.03
2018-06-04T02:44:05.146Z,7.92
2018-06-04T02:50:00.239Z,8.95
2018-06-04T02:55:55.192Z,8.2
2018-06-04T03:01:50.149Z,7.14
2018-06-04T03:07:45.140Z,7.23
2018-06-04T03:13:40.154Z,7.2
2018-06-04T03:19:35.180Z,8.92
2018-06-04T03:25:30.217Z,10
2018-06-04T03:31:25.234Z,9.23
2018-06-04T03:37:20.256Z,11.37
2018-06-04T03:43:15.172Z,10.64
2018-06-04T03:49:10.161Z,8.29
2018-06-04T03:55:05.172Z,11.13
2018-06-04T04:01:00.172Z,11.37
2018-06-04T04:06:55.194Z,7.62
2018-06-04T04:12:50.217Z,7.69
2018-06-04T04:18:45.231Z,13.41
2018-06-04T04:24:40.219Z,10.06
2018-06-04T04:30:35.236Z,10.73
2018-06-04T04:36:30.230Z,10.02
2018-06-04T04:42:25.216Z,8.65
2018-06-04T04:48:20.218Z,11.25
2018-06-04T04:54:15.217Z,11.33
2018-06-04T05:00:10.517Z,9.19
2018-06-04T05:06:05.199Z,9.42
2018-06-04T05:12:00.301Z,13
2018-06-04T05:17:55.249Z,11.76
2018-06-04T05:23:50.339Z,12.85
2018-06-04T05:29:45.227Z,11.25
2018-06-04T05:35:40.296Z,12.77
2018-06-04T05:41:35.222Z,14.68
2018-06-04T05:47:30.367Z,18.5
2018-06-04T05:53:25.296Z,13.21
2018-06-04T05:59:20.294Z,12.37
2018-06-04T06:05:15.292Z,16.33
2018-06-04T06:11:10.294Z,15.71
2018-06-04T06:17:05.416Z,10.86
2018-06-04T06:23:00.336Z,14.11
2018-06-04T06:28:55.379Z,12.01
2018-06-04T06:34:50.379Z,11.97
2018-06-04T06:40:45.314Z,16.12
2018-06-04T06:46:40.315Z,10.51
2018-06-04T06:52:35.301Z,9.51
2018-06-04T06:58:30.345Z,10.78
2018-06-04T07:04:25.429Z,11.62
2018-06-04T07:10:20.314Z,11.08
2018-06-04T07:16:15.376Z,10.76
2018-06-04T07:22:10.337Z,10.23
2018-06-04T07:28:05.362Z,7.78
2018-06-04T07:34:00.400Z,8.22
2018-06-04T07:39:55.394Z,8.08
2018-06-04T07:45:50.376Z,7.46
2018-06-04T07:51:45.344Z,10.1
2018-06-04T07:57:40.381Z,10.24
2018-06-04T08:03:35.872Z,7.7
2018-06-04T08:09:30.390Z,9.81
2018-06-04T08:15:25.389Z,6.89
2018-06-04T08:21:20.350Z,8.92
2018-06-04T08:27:15.397Z,9.11
2018-06-04T08:33:10.386Z,7.72
2018-06-04T08:39:05.384Z,7.04
2018-06-04T08:45:00.375Z,7.79
2018-06-04T08:50:55.457Z,6.69
2018-06-04T08:56:50.462Z,7.39
2018-06-04T09:02:46.431Z,8.28
2018-06-04T09:08:40.371Z,10.54
2018-06-04T09:14:35.396Z,13.8
2018-06-04T09:20:30.400Z,10.16
2018-06-04T09:26:25.412Z,9.26
2018-06-04T09:32:20.512Z,9.45
2018-06-04T09:38:15.427Z,8.68
2018-06-04T09:44:10.445Z,9.69
2018-06-04T09:50:05.753Z,8.59
2018-06-04T09:56:00.432Z,9.7
2018-06-04T10:01:55.433Z,11.5
2018-06-04T10:07:50.954Z,10.06
2018-06-04T10:13:46.285Z,10.64
2018-06-04T10:19:40.678Z,7.52
2018-06-04T10:25:35.509Z,10.3
2018-06-04T10:31:30.573Z,10.62
2018-06-04T10:37:25.486Z,8.65
2018-06-04T10:43:20.472Z,10.03
2018-06-04T10:49:15.529Z,9.2
2018-06-04T10:55:10.838Z,10.09
2018-06-04T11:01:05.799Z,8.91
2018-06-04T11:07:00.471Z,10.28
2018-06-04T11:12:55.517Z,12.35
2018-06-04T11:18:50.501Z,9.08
2018-06-04T11:24:45.534Z,10.26
2018-06-04T11:30:40.524Z,12.99
2018-06-04T11:36:35.528Z,11.39
2018-06-04T11:42:30.538Z,11.27
2018-06-04T11:48:25.523Z,11.47
2018-06-04T11:54:20.520Z,13.67
2018-06-04T12:00:15.515Z,12.52
2018-06-04T12:06:10.688Z,14.17
2018-06-04T12:12:05.508Z,12.06
2018-06-04T12:18:00.529Z,9.96
2018-06-04T12:23:55.554Z,8.14
2018-06-04T12:29:50.613Z,9.14
2018-06-04T12:35:45.542Z,8.95
2018-06-04T12:41:40.622Z,13.15
2018-06-04T12:47:35.592Z,11.86
2018-06-04T12:53:30.566Z,14.89
2018-06-04T12:59:25.624Z,10.34
2018-06-04T13:05:20.607Z,16.13
2018-06-04T13:11:15.653Z,12.93
2018-06-04T13:17:10.608Z,14.23
2018-06-04T13:23:05.701Z,14.91
2018-06-04T13:29:00.923Z,19.8
2018-06-04T13:34:55.598Z,23.35
2018-06-04T13:40:50.588Z,16.07
2018-06-04T13:46:45.662Z,8.82
2018-06-04T13:52:40.629Z,8.4
2018-06-04T13:58:35.682Z,13.02
2018-06-04T14:04:30.648Z,15.38
2018-06-04T14:10:25.630Z,22.02
2018-06-04T14:16:20.658Z,12.13
2018-06-04T14:22:16.262Z,13.98
2018-06-04T14:28:10.652Z,12.03
2018-06-04T14:34:05.627Z,13.23
2018-06-04T14:40:00.644Z,16.92
2018-06-04T14:45:55.663Z,24.16
2018-06-04T14:51:50.669Z,21.8
2018-06-04T14:57:45.650Z,15.67
2018-06-04T15:03:40.642Z,17.37
2018-06-04T15:09:35.770Z,16.57
2018-06-04T15:15:30.725Z,16
2018-06-04T15:21:25.684Z,16.37
2018-06-04T15:27:20.670Z,15.69
2018-06-04T15:33:15.693Z,11.78
2018-06-04T15:39:10.709Z,14.06
2018-06-04T15:45:06.105Z,11.8
2018-06-04T15:51:00.693Z,14.51
2018-06-04T15:56:55.776Z,11.26
2018-06-04T16:02:50.728Z,11.81
2018-06-04T16:08:45.712Z,12.27
2018-06-04T16:14:40.705Z,12.34
2018-06-04T16:20:35.727Z,13.34
2018-06-04T16:26:30.747Z,16.85
2018-06-04T16:32:25.740Z,11.63
2018-06-04T16:38:20.751Z,12.22
2018-06-04T16:44:15.791Z,13.68
2018-06-04T16:50:10.866Z,11.55
2018-06-04T16:56:05.774Z,12.65
2018-06-04T17:02:00.868Z,12.17
2018-06-04T17:07:55.732Z,13.53
2018-06-04T17:13:50.826Z,10.94
2018-06-04T17:19:45.784Z,13.31
2018-06-04T17:25:40.757Z,9.63
2018-06-04T17:31:35.833Z,11.37
2018-06-04T17:37:30.807Z,9.03
2018-06-04T17:43:25.802Z,8.53
2018-06-04T17:49:20.792Z,7
2018-06-04T17:55:15.776Z,11.99
2018-06-04T18:01:10.811Z,12.14
2018-06-04T18:07:05.892Z,12.44
2018-06-04T18:13:00.948Z,7.29
2018-06-04T18:18:55.807Z,10.61
2018-06-04T18:24:50.793Z,11.15
2018-06-04T18:30:45.818Z,10.1
2018-06-04T18:36:40.806Z,7.53
2018-06-04T18:42:35.842Z,8.98
2018-06-04T18:48:30.878Z,7.16
2018-06-04T18:54:25.844Z,14.99
2018-06-04T19:00:21.057Z,7.56
2018-06-04T19:06:15.845Z,9.03
2018-06-04T19:12:10.847Z,10.69
2018-06-04T19:18:05.868Z,6.26
2018-06-04T19:24:00.909Z,6.87
2018-06-04T19:29:55.846Z,7.2
2018-06-04T19:35:50.946Z,12.64
2018-06-04T19:41:45.856Z,6.71
2018-06-04T19:47:41.077Z,7.3
2018-06-04T19:53:35.880Z,9.66
2018-06-04T19:59:30.876Z,9
2018-06-04T20:05:25.880Z,9.75
2018-06-04T20:11:21.082Z,9.59
2018-06-04T20:17:15.893Z,6.38
2018-06-04T20:23:11.357Z,7.4
2018-06-04T20:29:05.887Z,6.86
2018-06-04T20:35:00.921Z,6.14
2018-06-04T20:40:56.568Z,5.43
2018-06-04T20:46:51.261Z,5.36
2018-06-04T20:52:45.937Z,7.1
2018-06-04T20:58:40.913Z,8.61
2018-06-04T21:04:35.903Z,6.39
2018-06-04T21:10:30.948Z,9.43
2018-06-04T21:16:26.013Z,5.8
2018-06-04T21:22:20.927Z,11.2
2018-06-04T21:28:15.934Z,9.43
2018-06-04T21:34:10.942Z,9.47
2018-06-04T21:40:05.937Z,6.14
2018-06-04T21:46:01.067Z,6.65
2018-06-04T21:51:55.912Z,15.02
2018-06-04T21:57:50.938Z,7.87
2018-06-04T22:03:46.235Z,8.62
2018-06-04T22:09:40.939Z,8.1
2018-06-04T22:15:35.941Z,10.07
2018-06-04T22:21:30.975Z,8.43
2018-06-04T22:27:26.017Z,4.59
2018-06-04T22:33:20.966Z,6.37
2018-06-04T22:39:15.946Z,8.9
2018-06-04T22:45:11.023Z,9.09
2018-06-04T22:51:05.969Z,5.03
2018-06-04T22:57:01.009Z,6.77
2018-06-04T23:02:56.027Z,4.87
2018-06-04T23:08:51.006Z,6.05
2018-06-04T23:14:45.987Z,7.31
2018-06-04T23:20:41.029Z,8.89
2018-06-04T23:26:36.065Z,6.75
2018-06-04T23:32:31.077Z,10.78
2018-06-04T23:38:26.005Z,9.01
2018-06-04T23:44:21.026Z,5.21
2018-06-04T23:50:16.085Z,6.77
2018-06-04T23:56:11.014Z,10.53
